This is the latest recevied weather packets stored in our database for station/object KF0EZB. If no packets are shown the sender has not sent any weather packets the latest 10 day(s).
| Time | Temp. | Humidity | Pressure | Rain* | Wind** | Luminosity | Snow |
|---|---|---|---|---|---|---|---|
| 1778104762 | 13.33° C | 55% | 1018.2 hPa | 0 mm | - | 288 W/m² | - |
| 1778104459 | 13.89° C | 54% | 1018.3 hPa | 0 mm | - | 300 W/m² | - |
| 1778104154 | 13.89° C | 54% | 1018.5 hPa | 0 mm | - | 648 W/m² | - |
| 1778103852 | 12.22° C | 57% | 1018.5 hPa | 0 mm | - | 711 W/m² | - |
| 1778103549 | 12.78° C | 56% | 1018.7 hPa | 0 mm | - | 244 W/m² | - |
| 1778103247 | 13.89° C | 54% | 1018.5 hPa | 0 mm | - | 447 W/m² | - |
| 1778102944 | 13.33° C | 55% | 1018.7 hPa | 0 mm | - | 315 W/m² | - |
| 1778102639 | 13.89° C | 53% | 1018.6 hPa | 0 mm | - | 360 W/m² | - |
| 1778102334 | 13.89° C | 57% | 1018.9 hPa | 0 mm | - | 388 W/m² | - |
| 1778102031 | 13.33° C | 57% | 1018.9 hPa | 0 mm | - | 629 W/m² | - |
| 1778101728 | 13.33° C | 58% | 1018.9 hPa | 0 mm | - | 711 W/m² | - |
| 1778101425 | 13.89° C | 57% | 1018.9 hPa | 0 mm | - | 669 W/m² | - |
| 1778101122 | 13.33° C | 62% | 1018.9 hPa | 0 mm | - | 701 W/m² | - |
| 1778100818 | 14.44° C | 58% | 1019.2 hPa | 0 mm | - | 731 W/m² | - |
| 1778100514 | 12.78° C | 60% | 1019 hPa | 0 mm | - | 554 W/m² | - |
| 1778100212 | 12.78° C | 62% | 1019.2 hPa | 0 mm | - | 291 W/m² | - |
| 1778099910 | 12.78° C | 62% | 1019.1 hPa | 0 mm | - | 675 W/m² | - |
| 1778099606 | 13.89° C | 60% | 1019.3 hPa | 0 mm | - | 542 W/m² | - |
| 1778099303 | 13.33° C | 64% | 1019.4 hPa | 0 mm | - | 584 W/m² | - |
| 1778099001 | 12.78° C | 61% | 1019.4 hPa | 0 mm | - | 605 W/m² | - |
| 1778098697 | 12.78° C | 64% | 1019.4 hPa | 0 mm | - | 644 W/m² | - |
| 1778098395 | 12.22° C | 67% | 1019.5 hPa | 0 mm | - | 610 W/m² | - |
| 1778098091 | 12.78° C | 65% | 1019.6 hPa | 0 mm | - | 614 W/m² | - |
| 1778097787 | 12.22° C | 64% | 1019.7 hPa | 0 mm | - | 587 W/m² | - |
| 1778097483 | 11.67° C | 68% | 1019.7 hPa | 0 mm | - | 559 W/m² | - |
* Rain latest hour (hover to see other rain measurements)
** Current wind speed in m/s (hover to see current wind gust speed)